Time;durP1;ratioP1;P1;durP2;ratioP2;P2;SDS_P1;SDS_P2;PMS_P1;PMS_P2;Temp;Humidity;BMP_temperature;BMP_pressure;BME280_temperature;BME280_humidity;BME280_pressure;Samples;Min_cycle;Max_cycle;Signal;HPM_P1;HPM_P2
2023/11/13 00:01:43;;;;;;;11.27;6.82;;;;;;;;;;5054399;28;20025;-83
2023/11/13 00:04:08;;;;;;;9.50;5.68;;;;;;;;;;5054435;28;20025;-83
2023/11/13 00:06:33;;;;;;;10.33;6.20;;;;;;;;;;5053107;28;20524;-83
2023/11/13 00:08:59;;;;;;;14.63;8.23;;;;;;;;;;5052910;28;20769;-83
2023/11/13 00:11:24;;;;;;;8.80;5.37;;;;;;;;;;5053049;28;20278;-84
2023/11/13 00:13:49;;;;;;;8.47;4.83;;;;;;;;;;5054274;28;20304;-83
2023/11/13 00:16:14;;;;;;;11.60;4.65;;;;;;;;;;5052851;28;20802;-83
2023/11/13 00:18:40;;;;;;;6.77;4.77;;;;;;;;;;5053345;28;20029;-82
2023/11/13 00:21:05;;;;;;;5.80;3.08;;;;;;;;;;5053007;28;20261;-83
2023/11/13 00:23:31;;;;;;;5.57;2.77;;;;;;;;;;5052530;28;20025;-83
2023/11/13 00:25:57;;;;;;;6.80;2.90;;;;;;;;;;5051985;28;20699;-83
2023/11/13 00:28:24;;;;;;;4.85;2.58;;;;;;;;;;5053111;28;20048;-83
2023/11/13 00:30:50;;;;;;;5.72;3.25;;;;;;;;;;5053663;28;20036;-83
2023/11/13 00:33:16;;;;;;;6.73;3.97;;;;;;;;;;5052692;28;20092;-82
2023/11/13 00:35:43;;;;;;;9.02;4.50;;;;;;;;;;5053904;28;20323;-83
2023/11/13 00:38:08;;;;;;;5.38;3.10;;;;;;;;;;5052482;28;20480;-83
2023/11/13 00:40:34;;;;;;;8.87;4.40;;;;;;;;;;5052543;28;20029;-83
2023/11/13 00:43:00;;;;;;;9.95;5.15;;;;;;;;;;5052532;28;20297;-83
2023/11/13 00:45:25;;;;;;;7.55;3.13;;;;;;;;;;5052105;28;20444;-83
2023/11/13 00:47:50;;;;;;;6.10;3.40;;;;;;;;;;5053767;28;20017;-83
2023/11/13 00:50:16;;;;;;;7.40;4.00;;;;;;;;;;5052736;28;20242;-83
2023/11/13 00:52:41;;;;;;;9.38;4.43;;;;;;;;;;5053208;28;20021;-83
2023/11/13 00:55:07;;;;;;;6.00;3.53;;;;;;;;;;5052325;28;20060;-82
2023/11/13 00:57:32;;;;;;;5.80;3.05;;;;;;;;;;5051863;28;20020;-82
2023/11/13 00:59:57;;;;;;;5.27;3.50;;;;;;;;;;5051987;28;20029;-83
2023/11/13 01:02:23;;;;;;;4.65;3.13;;;;;;;;;;5052078;28;20284;-83
2023/11/13 01:04:49;;;;;;;5.20;3.10;;;;;;;;;;5053207;28;20025;-83
2023/11/13 01:07:16;;;;;;;7.15;2.90;;;;;;;;;;5053243;28;20108;-83
2023/11/13 01:09:42;;;;;;;5.00;2.75;;;;;;;;;;5052032;28;20532;-83
2023/11/13 01:12:08;;;;;;;5.18;3.33;;;;;;;;;;5053069;28;20021;-83
2023/11/13 01:14:34;;;;;;;5.22;3.17;;;;;;;;;;5051825;28;20086;-83
2023/11/13 01:16:59;;;;;;;7.38;3.42;;;;;;;;;;5051689;28;20031;-83
2023/11/13 01:19:24;;;;;;;4.60;2.70;;;;;;;;;;5053336;28;20025;-83
2023/11/13 01:21:50;;;;;;;5.55;3.50;;;;;;;;;;5053293;28;20305;-83
2023/11/13 01:24:15;;;;;;;3.30;1.80;;;;;;;;;;5051315;28;20080;-83
2023/11/13 01:26:40;;;;;;;5.05;3.17;;;;;;;;;;5051681;28;20262;-83
2023/11/13 01:29:06;;;;;;;6.03;1.80;;;;;;;;;;5052588;28;20036;-82
2023/11/13 01:31:31;;;;;;;2.53;1.40;;;;;;;;;;5052782;28;20257;-83
2023/11/13 01:33:56;;;;;;;3.23;1.10;;;;;;;;;;5052850;28;20059;-83
2023/11/13 01:36:22;;;;;;;1.10;0.90;;;;;;;;;;5053115;28;20428;-83
2023/11/13 01:38:47;;;;;;;1.08;0.82;;;;;;;;;;5050645;28;20027;-82
2023/11/13 01:41:12;;;;;;;0.60;0.60;;;;;;;;;;5051621;28;20058;-83
2023/11/13 01:43:37;;;;;;;1.87;0.50;;;;;;;;;;5052792;28;20400;-84
2023/11/13 01:46:04;;;;;;;0.87;0.73;;;;;;;;;;5051457;28;20027;-83
2023/11/13 01:48:29;;;;;;;2.85;0.90;;;;;;;;;;5052770;28;20337;-84
2023/11/13 01:50:55;;;;;;;2.30;0.88;;;;;;;;;;5051767;28;20123;-83
2023/11/13 01:53:23;;;;;;;1.42;0.75;;;;;;;;;;5051769;28;20017;-83
2023/11/13 01:55:50;;;;;;;1.58;0.88;;;;;;;;;;5051478;28;20117;-84
2023/11/13 01:58:16;;;;;;;1.45;0.88;;;;;;;;;;5050805;28;20033;-84
2023/11/13 02:00:41;;;;;;;2.35;1.00;;;;;;;;;;5052595;28;20495;-84
2023/11/13 02:03:08;;;;;;;0.88;0.80;;;;;;;;;;5052442;28;20362;-84
2023/11/13 02:05:33;;;;;;;2.03;1.15;;;;;;;;;;5050796;28;20025;-83
2023/11/13 02:07:58;;;;;;;3.42;1.08;;;;;;;;;;5051372;28;20100;-83
2023/11/13 02:10:26;;;;;;;1.80;1.10;;;;;;;;;;5052121;28;20024;-83
2023/11/13 02:12:51;;;;;;;1.52;0.88;;;;;;;;;;5051049;28;20289;-83
2023/11/13 02:15:16;;;;;;;4.63;1.35;;;;;;;;;;5052488;28;20051;-83
2023/11/13 02:17:57;;;;;;;4.37;1.00;;;;;;;;;;5051014;28;20439;-84
2023/11/13 02:20:22;;;;;;;1.83;1.25;;;;;;;;;;5052936;28;20246;-83
2023/11/13 02:22:47;;;;;;;3.77;1.50;;;;;;;;;;5051309;28;20385;-83
2023/11/13 02:25:14;;;;;;;2.70;1.40;;;;;;;;;;5051034;28;20824;-83
2023/11/13 02:27:40;;;;;;;5.30;1.90;;;;;;;;;;5052376;28;20343;-84
2023/11/13 02:30:05;;;;;;;3.80;1.63;;;;;;;;;;5051045;28;20464;-84
2023/11/13 02:32:30;;;;;;;8.25;2.67;;;;;;;;;;5050848;28;20392;-84
2023/11/13 02:34:56;;;;;;;7.57;2.13;;;;;;;;;;5051055;28;20035;-83
2023/11/13 02:37:21;;;;;;;12.70;2.67;;;;;;;;;;5050857;28;20021;-83
2023/11/13 02:39:47;;;;;;;10.93;2.75;;;;;;;;;;5052439;28;20377;-83
2023/11/13 02:42:12;;;;;;;6.97;2.20;;;;;;;;;;5052394;28;20056;-83
2023/11/13 02:44:37;;;;;;;12.05;2.75;;;;;;;;;;5050789;28;20028;-84
2023/11/13 02:47:03;;;;;;;12.53;2.33;;;;;;;;;;5052267;28;20112;-83
2023/11/13 02:49:28;;;;;;;20.38;3.10;;;;;;;;;;5052325;28;20025;-82
2023/11/13 02:51:54;;;;;;;6.97;1.70;;;;;;;;;;5055070;28;20013;-83
2023/11/13 02:54:20;;;;;;;10.87;2.23;;;;;;;;;;5054763;28;20253;-83
2023/11/13 02:56:45;;;;;;;13.40;2.13;;;;;;;;;;5055515;28;20368;-83
2023/11/13 02:59:10;;;;;;;14.07;3.13;;;;;;;;;;5055522;28;20037;-83
2023/11/13 03:01:35;;;;;;;11.47;2.70;;;;;;;;;;5055482;28;20303;-83
2023/11/13 03:04:01;;;;;;;11.45;2.03;;;;;;;;;;5054139;28;20116;-83
2023/11/13 03:06:26;;;;;;;12.52;2.25;;;;;;;;;;5055110;28;20025;-84
2023/11/13 03:08:51;;;;;;;11.55;2.33;;;;;;;;;;5055623;28;20106;-83
2023/11/13 03:11:17;;;;;;;12.65;2.08;;;;;;;;;;5054139;28;20193;-83
2023/11/13 03:13:42;;;;;;;20.10;3.23;;;;;;;;;;5055558;28;20025;-83
2023/11/13 03:16:07;;;;;;;13.38;2.03;;;;;;;;;;5055567;28;20684;-83
2023/11/13 03:18:33;;;;;;;8.98;1.80;;;;;;;;;;5053843;28;20028;-82
2023/11/13 03:21:00;;;;;;;11.53;2.83;;;;;;;;;;5054453;28;20020;-83
2023/11/13 03:23:25;;;;;;;14.63;1.88;;;;;;;;;;5054202;28;20261;-83
2023/11/13 03:25:50;;;;;;;10.67;1.83;;;;;;;;;;5072191;28;20404;-83
2023/11/13 03:28:15;;;;;;;10.87;2.23;;;;;;;;;;5074941;28;20729;-83
2023/11/13 03:30:41;;;;;;;12.90;2.20;;;;;;;;;;5074684;28;20016;-83
2023/11/13 03:33:07;;;;;;;15.73;2.47;;;;;;;;;;5057039;28;20063;-84
2023/11/13 03:35:32;;;;;;;11.82;2.88;;;;;;;;;;5074982;28;20028;-84
2023/11/13 03:37:57;;;;;;;25.85;2.63;;;;;;;;;;5074943;28;20035;-84
2023/11/13 03:40:24;;;;;;;15.07;2.45;;;;;;;;;;5074909;28;20016;-83
2023/11/13 03:42:49;;;;;;;14.35;2.42;;;;;;;;;;5074813;28;20372;-83
2023/11/13 03:45:14;;;;;;;21.75;3.40;;;;;;;;;;5074605;28;20021;-83
2023/11/13 03:47:40;;;;;;;20.75;3.00;;;;;;;;;;5074686;28;20016;-83
2023/11/13 03:50:06;;;;;;;22.55;3.30;;;;;;;;;;5075038;28;20017;-83
2023/11/13 03:52:31;;;;;;;22.20;3.33;;;;;;;;;;5057297;28;20025;-83
2023/11/13 03:54:57;;;;;;;20.88;3.05;;;;;;;;;;5074706;28;20025;-83
2023/11/13 03:57:22;;;;;;;21.67;2.67;;;;;;;;;;5056143;28;20025;-83
2023/11/13 03:59:47;;;;;;;18.48;3.45;;;;;;;;;;5056420;28;20614;-82
2023/11/13 04:02:12;;;;;;;22.97;2.90;;;;;;;;;;5055410;28;20028;-83
2023/11/13 04:04:38;;;;;;;16.80;3.20;;;;;;;;;;5074365;28;20381;-83
2023/11/13 04:07:03;;;;;;;15.98;2.97;;;;;;;;;;5055986;28;20025;-82
2023/11/13 04:09:28;;;;;;;17.08;2.92;;;;;;;;;;5056540;28;20021;-83
2023/11/13 04:11:55;;;;;;;15.85;2.70;;;;;;;;;;5074208;28;20023;-83
2023/11/13 04:14:23;;;;;;;22.67;3.30;;;;;;;;;;5073945;28;20020;-83
2023/11/13 04:16:48;;;;;;;22.35;3.63;;;;;;;;;;5056205;28;20400;-83
2023/11/13 04:19:13;;;;;;;26.80;3.63;;;;;;;;;;5074084;28;20024;-83
2023/11/13 04:21:39;;;;;;;21.70;3.73;;;;;;;;;;5056621;28;20253;-83
2023/11/13 04:24:04;;;;;;;17.55;3.30;;;;;;;;;;5056216;28;21391;-83
2023/11/13 04:26:29;;;;;;;25.23;2.90;;;;;;;;;;5073782;28;20020;-83
2023/11/13 04:28:55;;;;;;;17.57;3.10;;;;;;;;;;5073850;28;20112;-83
2023/11/13 04:31:20;;;;;;;25.52;3.78;;;;;;;;;;5055806;28;20340;-83
2023/11/13 04:33:45;;;;;;;23.52;3.15;;;;;;;;;;5074202;28;20023;-84
2023/11/13 04:36:10;;;;;;;17.83;3.27;;;;;;;;;;5073622;28;20074;-83
2023/11/13 04:38:37;;;;;;;19.17;3.50;;;;;;;;;;5055687;28;20268;-84
2023/11/13 04:41:03;;;;;;;20.80;3.67;;;;;;;;;;5055465;28;20281;-83
2023/11/13 04:43:28;;;;;;;26.00;3.55;;;;;;;;;;5073614;28;20055;-84
2023/11/13 04:45:53;;;;;;;26.43;3.77;;;;;;;;;;5073666;28;20030;-84
2023/11/13 04:48:18;;;;;;;23.13;4.43;;;;;;;;;;5073362;28;20464;-84
2023/11/13 04:50:44;;;;;;;18.77;3.50;;;;;;;;;;5073898;28;20016;-84
2023/11/13 04:53:09;;;;;;;23.20;3.47;;;;;;;;;;5073956;28;20250;-85
2023/11/13 04:55:34;;;;;;;26.70;4.53;;;;;;;;;;5055701;28;20257;-84
2023/11/13 04:58:00;;;;;;;31.85;3.85;;;;;;;;;;5055277;28;20257;-83
2023/11/13 05:00:25;;;;;;;27.58;3.33;;;;;;;;;;5055481;28;20027;-83
2023/11/13 05:02:51;;;;;;;25.42;4.20;;;;;;;;;;5073236;28;20077;-84
2023/11/13 05:05:16;;;;;;;19.52;2.83;;;;;;;;;;5073005;28;20103;-83
2023/11/13 05:07:41;;;;;;;20.87;3.47;;;;;;;;;;5072591;28;20028;-83
2023/11/13 05:10:07;;;;;;;22.73;3.80;;;;;;;;;;5072431;28;20867;-82
2023/11/13 05:12:33;;;;;;;31.33;4.45;;;;;;;;;;5073094;28;20028;-85
2023/11/13 05:14:58;;;;;;;28.75;4.55;;;;;;;;;;5074243;28;20021;-85
2023/11/13 05:17:24;;;;;;;27.60;4.15;;;;;;;;;;5074370;28;20052;-85
2023/11/13 05:19:49;;;;;;;27.45;3.85;;;;;;;;;;5073985;28;20016;-85
2023/11/13 05:22:14;;;;;;;17.85;3.55;;;;;;;;;;5074027;28;20043;-85
2023/11/13 05:24:39;;;;;;;19.50;4.20;;;;;;;;;;5073815;28;20047;-85
2023/11/13 05:27:05;;;;;;;21.97;3.70;;;;;;;;;;5074043;28;20295;-85
2023/11/13 05:29:31;;;;;;;26.65;4.50;;;;;;;;;;5073990;28;20361;-85
2023/11/13 05:31:56;;;;;;;30.65;4.45;;;;;;;;;;5055790;28;20012;-85
2023/11/13 05:34:23;;;;;;;22.63;3.88;;;;;;;;;;5055949;28;20472;-85
2023/11/13 05:36:48;;;;;;;25.08;4.78;;;;;;;;;;5056205;28;20021;-85
2023/11/13 05:39:15;;;;;;;22.03;4.60;;;;;;;;;;5074143;28;20096;-85
2023/11/13 05:41:41;;;;;;;29.98;5.43;;;;;;;;;;5055896;28;20022;-85
2023/11/13 05:44:06;;;;;;;31.20;5.30;;;;;;;;;;5055551;28;20029;-84
2023/11/13 05:46:32;;;;;;;27.83;4.50;;;;;;;;;;5073576;28;20289;-85
2023/11/13 05:48:57;;;;;;;20.27;3.47;;;;;;;;;;5055508;28;20040;-85
2023/11/13 05:51:22;;;;;;;24.27;4.40;;;;;;;;;;5055908;28;20031;-85
2023/11/13 05:53:48;;;;;;;25.83;4.53;;;;;;;;;;5056032;28;20012;-84
2023/11/13 05:56:13;;;;;;;34.92;5.32;;;;;;;;;;5074102;28;20024;-85
2023/11/13 05:58:38;;;;;;;28.23;4.63;;;;;;;;;;5055777;28;20464;-85
2023/11/13 06:01:04;;;;;;;21.70;3.67;;;;;;;;;;5055723;28;20457;-85
2023/11/13 06:03:29;;;;;;;28.65;4.47;;;;;;;;;;5055825;28;20583;-85
2023/11/13 06:05:54;;;;;;;28.85;3.88;;;;;;;;;;5073815;28;20441;-85
2023/11/13 06:08:19;;;;;;;21.63;3.70;;;;;;;;;;5073853;28;20024;-85
2023/11/13 06:10:44;;;;;;;18.10;3.23;;;;;;;;;;5055754;28;20012;-85
2023/11/13 06:13:12;;;;;;;27.93;4.43;;;;;;;;;;5055753;28;20617;-85
2023/11/13 06:15:40;;;;;;;25.63;4.38;;;;;;;;;;5073742;28;20300;-85
2023/11/13 06:18:06;;;;;;;21.45;4.03;;;;;;;;;;5073508;28;20479;-84
2023/11/13 06:20:31;;;;;;;22.92;3.95;;;;;;;;;;5055552;28;20016;-83
2023/11/13 06:22:56;;;;;;;25.07;3.43;;;;;;;;;;5055221;28;20525;-85
2023/11/13 06:25:21;;;;;;;19.73;3.70;;;;;;;;;;5075664;28;20320;-85
2023/11/13 06:27:47;;;;;;;16.95;3.47;;;;;;;;;;5059586;28;20281;-85
2023/11/13 06:30:12;;;;;;;16.65;3.22;;;;;;;;;;5059823;28;20111;-85
2023/11/13 06:32:38;;;;;;;20.02;3.38;;;;;;;;;;5059451;28;20027;-85
2023/11/13 06:35:03;;;;;;;22.75;3.35;;;;;;;;;;5077275;28;20036;-85
2023/11/13 06:37:29;;;;;;;21.33;3.20;;;;;;;;;;5076964;28;20024;-85
2023/11/13 06:39:54;;;;;;;16.93;2.93;;;;;;;;;;5059182;28;20090;-85
2023/11/13 06:42:19;;;;;;;19.10;2.70;;;;;;;;;;5077147;28;20246;-85
2023/11/13 06:44:44;;;;;;;15.80;2.80;;;;;;;;;;5059114;28;20389;-85
2023/11/13 06:47:10;;;;;;;12.83;3.03;;;;;;;;;;5077168;28;20098;-85
2023/11/13 06:49:38;;;;;;;15.93;3.13;;;;;;;;;;5076929;28;20238;-85
2023/11/13 06:52:08;;;;;;;16.92;2.47;;;;;;;;;;5076962;28;20050;-85
2023/11/13 06:54:33;;;;;;;21.35;3.53;;;;;;;;;;5059277;28;20028;-85
2023/11/13 06:56:58;;;;;;;17.02;2.80;;;;;;;;;;5076924;28;20031;-85
2023/11/13 06:59:25;;;;;;;9.77;2.33;;;;;;;;;;5058341;28;20085;-85
2023/11/13 07:01:51;;;;;;;14.20;2.58;;;;;;;;;;5076322;28;20277;-85
2023/11/13 07:04:16;;;;;;;10.18;2.83;;;;;;;;;;5058773;28;20059;-85
2023/11/13 07:06:41;;;;;;;19.03;3.07;;;;;;;;;;5058673;28;20025;-85
2023/11/13 07:09:10;;;;;;;18.42;3.00;;;;;;;;;;5076776;28;20245;-85
2023/11/13 07:11:42;;;;;;;14.77;2.33;;;;;;;;;;5076583;28;20013;-85
2023/11/13 07:14:08;;;;;;;17.63;3.35;;;;;;;;;;5058683;28;20024;-85
2023/11/13 07:16:36;;;;;;;15.63;2.47;;;;;;;;;;5058596;28;20491;-85
2023/11/13 07:19:03;;;;;;;8.90;2.00;;;;;;;;;;5058316;28;20119;-85
2023/11/13 07:21:29;;;;;;;15.35;2.20;;;;;;;;;;5058408;28;20028;-85
2023/11/13 07:23:54;;;;;;;9.88;1.95;;;;;;;;;;5058252;28;20392;-85
2023/11/13 07:26:19;;;;;;;10.07;1.87;;;;;;;;;;5058299;28;20059;-85
2023/11/13 07:28:45;;;;;;;8.23;1.63;;;;;;;;;;5076487;28;20273;-85
2023/11/13 07:31:10;;;;;;;10.45;1.65;;;;;;;;;;5058265;28;20043;-85
2023/11/13 07:33:35;;;;;;;9.23;1.50;;;;;;;;;;5058274;28;20031;-85
2023/11/13 07:36:03;;;;;;;10.25;1.88;;;;;;;;;;5056959;28;20020;-84
2023/11/13 07:38:28;;;;;;;10.35;2.00;;;;;;;;;;5057732;28;20393;-84
2023/11/13 07:40:53;;;;;;;11.83;1.90;;;;;;;;;;5057492;28;20012;-85
2023/11/13 07:43:19;;;;;;;9.40;2.03;;;;;;;;;;5057818;28;20340;-85
2023/11/13 07:45:44;;;;;;;8.40;1.80;;;;;;;;;;5058038;28;20070;-85
2023/11/13 07:48:09;;;;;;;7.13;1.13;;;;;;;;;;5075946;28;20306;-85
2023/11/13 07:50:35;;;;;;;6.30;1.30;;;;;;;;;;5057712;28;20341;-85
2023/11/13 07:53:00;;;;;;;11.27;1.27;;;;;;;;;;5057806;28;20021;-85
2023/11/13 07:55:27;;;;;;;8.00;1.40;;;;;;;;;;5075607;28;20021;-85
2023/11/13 07:57:53;;;;;;;6.28;1.13;;;;;;;;;;5057649;28;20027;-85
2023/11/13 08:00:23;;;;;;;8.50;1.25;;;;;;;;;;5057612;28;20165;-84
2023/11/13 08:02:49;;;;;;;4.97;1.20;;;;;;;;;;5057775;28;20103;-85
2023/11/13 08:05:16;;;;;;;5.63;1.50;;;;;;;;;;5057624;28;20543;-85
2023/11/13 08:07:42;;;;;;;11.90;1.77;;;;;;;;;;5075718;28;20498;-85
2023/11/13 08:10:12;;;;;;;8.20;1.30;;;;;;;;;;5057670;28;20044;-85
2023/11/13 08:12:37;;;;;;;7.85;1.50;;;;;;;;;;5057361;28;20021;-85
2023/11/13 08:15:03;;;;;;;9.75;1.73;;;;;;;;;;5057503;28;20270;-84
2023/11/13 08:17:28;;;;;;;8.80;1.58;;;;;;;;;;5074721;28;20025;-85
2023/11/13 08:19:53;;;;;;;13.47;1.90;;;;;;;;;;5075076;28;20024;-84
2023/11/13 08:22:18;;;;;;;10.50;1.83;;;;;;;;;;5057231;28;20249;-84
2023/11/13 08:24:44;;;;;;;10.70;1.70;;;;;;;;;;5057253;28;20087;-85
2023/11/13 08:27:09;;;;;;;6.13;1.57;;;;;;;;;;5075261;28;20679;-85
2023/11/13 08:29:34;;;;;;;9.32;2.38;;;;;;;;;;5075007;28;20096;-85
2023/11/13 08:32:00;;;;;;;10.27;2.23;;;;;;;;;;5075119;28;20017;-85
2023/11/13 08:34:25;;;;;;;7.72;1.70;;;;;;;;;;5057060;28;20063;-85
2023/11/13 08:36:50;;;;;;;10.77;2.10;;;;;;;;;;5074882;28;20023;-85
2023/11/13 08:39:17;;;;;;;9.97;2.07;;;;;;;;;;5074584;28;20029;-85
2023/11/13 08:41:42;;;;;;;9.43;1.60;;;;;;;;;;5074886;28;20253;-85
2023/11/13 08:44:08;;;;;;;10.32;1.98;;;;;;;;;;5074683;28;20031;-85
2023/11/13 08:46:35;;;;;;;15.38;2.50;;;;;;;;;;5056485;28;20016;-85
2023/11/13 08:49:00;;;;;;;8.52;1.80;;;;;;;;;;5056451;28;20028;-85
2023/11/13 08:51:28;;;;;;;10.55;2.10;;;;;;;;;;5074622;28;20027;-85
2023/11/13 08:53:59;;;;;;;15.05;1.70;;;;;;;;;;5056325;28;20027;-85
2023/11/13 08:56:25;;;;;;;10.07;2.10;;;;;;;;;;5056289;28;20096;-85
2023/11/13 08:58:52;;;;;;;12.95;2.72;;;;;;;;;;5056575;28;20047;-85
2023/11/13 09:01:19;;;;;;;7.60;1.90;;;;;;;;;;5056766;28;20388;-84
2023/11/13 09:03:44;;;;;;;6.75;2.30;;;;;;;;;;5074394;28;20024;-85
2023/11/13 09:06:13;;;;;;;13.77;2.47;;;;;;;;;;5074435;28;20021;-85
2023/11/13 09:08:42;;;;;;;9.60;2.17;;;;;;;;;;5074621;28;20036;-85
2023/11/13 09:11:08;;;;;;;6.68;1.77;;;;;;;;;;5074634;28;20016;-85
2023/11/13 09:13:33;;;;;;;6.20;1.88;;;;;;;;;;5074447;28;20020;-85
2023/11/13 09:15:59;;;;;;;7.50;2.58;;;;;;;;;;5056233;28;20070;-85
2023/11/13 09:18:26;;;;;;;11.18;1.67;;;;;;;;;;5056323;28;20044;-85
2023/11/13 09:20:54;;;;;;;10.13;1.98;;;;;;;;;;5056399;28;20063;-85
2023/11/13 09:23:20;;;;;;;10.48;2.33;;;;;;;;;;5056555;28;20024;-85
2023/11/13 09:25:45;;;;;;;8.65;2.28;;;;;;;;;;5074225;28;20056;-85
2023/11/13 09:28:11;;;;;;;11.75;1.67;;;;;;;;;;5074061;28;20487;-85
2023/11/13 09:30:36;;;;;;;4.00;1.90;;;;;;;;;;5056139;28;20488;-85
2023/11/13 09:33:02;;;;;;;7.67;1.70;;;;;;;;;;5055848;28;20051;-85
2023/11/13 09:35:29;;;;;;;6.47;1.50;;;;;;;;;;5055504;28;20285;-85
2023/11/13 09:37:55;;;;;;;10.10;1.98;;;;;;;;;;5074011;28;20310;-85
2023/11/13 09:40:23;;;;;;;19.80;2.20;;;;;;;;;;5055984;28;20111;-85
2023/11/13 09:42:58;;;;;;;4.05;1.80;;;;;;;;;;5073968;28;20028;-84
2023/11/13 09:45:23;;;;;;;5.05;1.70;;;;;;;;;;5055798;28;20507;-85
2023/11/13 09:47:56;;;;;;;7.30;2.00;;;;;;;;;;5055942;28;20017;-85
2023/11/13 09:50:21;;;;;;;12.05;2.22;;;;;;;;;;5074299;28;20008;-84
2023/11/13 09:52:48;;;;;;;10.23;2.20;;;;;;;;;;5056064;28;20568;-85
2023/11/13 09:55:18;;;;;;;6.40;2.45;;;;;;;;;;5073892;28;20253;-85
2023/11/13 09:57:44;;;;;;;12.20;2.28;;;;;;;;;;5073860;28;20418;-85
2023/11/13 10:00:16;;;;;;;9.02;2.15;;;;;;;;;;5076325;28;20013;-86
2023/11/13 10:02:52;;;;;;;6.47;1.90;;;;;;;;;;5059861;28;20052;-85
2023/11/13 10:05:18;;;;;;;8.68;2.20;;;;;;;;;;5077607;28;20035;-85
2023/11/13 10:07:48;;;;;;;6.15;2.00;;;;;;;;;;5078185;28;20460;-85
2023/11/13 10:10:22;;;;;;;9.10;1.95;;;;;;;;;;5077860;28;20008;-85
2023/11/13 10:12:48;;;;;;;7.20;2.15;;;;;;;;;;5059894;28;20023;-85
2023/11/13 10:15:13;;;;;;;7.30;2.20;;;;;;;;;;5077531;28;20423;-85
2023/11/13 10:17:46;;;;;;;8.68;2.20;;;;;;;;;;5077773;28;20048;-85
2023/11/13 10:20:17;;;;;;;11.10;2.17;;;;;;;;;;5077302;28;20046;-85
2023/11/13 10:22:43;;;;;;;4.72;1.75;;;;;;;;;;5077285;28;20146;-85
2023/11/13 10:25:11;;;;;;;7.05;2.45;;;;;;;;;;5055644;28;20127;-84
2023/11/13 10:27:44;;;;;;;8.77;2.17;;;;;;;;;;5055726;28;20109;-85
2023/11/13 10:30:10;;;;;;;5.32;1.90;;;;;;;;;;5055803;28;20013;-85
2023/11/13 10:32:36;;;;;;;7.18;1.95;;;;;;;;;;5055841;28;20040;-85
2023/11/13 10:35:03;;;;;;;5.07;1.52;;;;;;;;;;5055978;28;20025;-85
2023/11/13 10:37:29;;;;;;;5.43;1.60;;;;;;;;;;5056043;28;20492;-85
2023/11/13 10:39:54;;;;;;;4.70;1.75;;;;;;;;;;5055829;28;20048;-85
2023/11/13 10:42:23;;;;;;;4.07;1.60;;;;;;;;;;5057304;28;20032;-85
2023/11/13 10:45:01;;;;;;;4.15;1.15;;;;;;;;;;5057261;28;20025;-85
2023/11/13 10:47:30;;;;;;;7.75;1.60;;;;;;;;;;5057058;28;20018;-85
2023/11/13 10:49:56;;;;;;;4.65;1.70;;;;;;;;;;5057172;28;20507;-85
2023/11/13 10:52:23;;;;;;;5.43;1.88;;;;;;;;;;5055727;28;20397;-85
2023/11/13 10:54:50;;;;;;;7.53;1.52;;;;;;;;;;5056972;28;20021;-84
2023/11/13 10:57:16;;;;;;;4.78;1.60;;;;;;;;;;5056927;28;20017;-85
2023/11/13 10:59:42;;;;;;;3.97;1.50;;;;;;;;;;5056851;28;20071;-85
2023/11/13 11:02:15;;;;;;;5.93;1.77;;;;;;;;;;5056737;28;20059;-85
2023/11/13 11:04:42;;;;;;;5.63;1.85;;;;;;;;;;5056772;28;20044;-85
2023/11/13 11:07:09;;;;;;;8.15;1.90;;;;;;;;;;5055338;28;20021;-85
2023/11/13 11:09:34;;;;;;;5.30;1.70;;;;;;;;;;5055094;28;20028;-85
2023/11/13 11:12:03;;;;;;;4.90;2.03;;;;;;;;;;5056472;28;20084;-85
2023/11/13 11:14:46;;;;;;;8.15;1.83;;;;;;;;;;5054909;28;20082;-85
2023/11/13 11:17:23;;;;;;;5.50;1.40;;;;;;;;;;5055037;28;20504;-85
2023/11/13 11:19:51;;;;;;;4.90;1.30;;;;;;;;;;5056478;28;20074;-85
2023/11/13 11:22:27;;;;;;;7.40;1.85;;;;;;;;;;5056089;28;20021;-85
2023/11/13 11:25:07;;;;;;;7.75;2.22;;;;;;;;;;5064826;28;20041;-85
2023/11/13 11:27:36;;;;;;;8.05;1.90;;;;;;;;;;5058011;28;20020;-86
2023/11/13 11:30:01;;;;;;;6.10;2.25;;;;;;;;;;5057811;28;20436;-85
2023/11/13 11:32:30;;;;;;;6.45;2.20;;;;;;;;;;5076175;28;20012;-85
2023/11/13 11:35:01;;;;;;;5.28;1.60;;;;;;;;;;5076229;28;20150;-85
2023/11/13 11:37:26;;;;;;;8.13;2.03;;;;;;;;;;5076029;28;20029;-85
2023/11/13 11:39:53;;;;;;;6.55;1.70;;;;;;;;;;5075980;28;20028;-85
2023/11/13 11:42:23;;;;;;;3.38;1.63;;;;;;;;;;5057934;28;20022;-85
2023/11/13 11:44:56;;;;;;;5.10;1.55;;;;;;;;;;5058107;28;20032;-85
2023/11/13 11:47:25;;;;;;;6.10;2.05;;;;;;;;;;5076112;28;20062;-85
2023/11/13 11:49:51;;;;;;;6.03;2.10;;;;;;;;;;5058088;28;20544;-85
2023/11/13 11:52:17;;;;;;;8.95;2.75;;;;;;;;;;5057818;28;20048;-85
2023/11/13 11:54:43;;;;;;;11.73;2.28;;;;;;;;;;5057726;28;20024;-85
2023/11/13 11:57:09;;;;;;;5.85;2.10;;;;;;;;;;5075718;28;20066;-85
2023/11/13 11:59:35;;;;;;;6.15;1.90;;;;;;;;;;5057812;28;20029;-87
2023/11/13 12:02:04;;;;;;;7.78;1.88;;;;;;;;;;5057449;28;20072;-85
2023/11/13 12:04:32;;;;;;;9.63;1.83;;;;;;;;;;5056888;28;20050;-85
2023/11/13 12:07:02;;;;;;;7.00;1.90;;;;;;;;;;5057069;28;20024;-85
2023/11/13 12:09:30;;;;;;;3.60;1.65;;;;;;;;;;5056865;28;20058;-85
2023/11/13 12:11:59;;;;;;;7.78;2.08;;;;;;;;;;5074928;28;20035;-84
2023/11/13 12:14:26;;;;;;;5.47;1.77;;;;;;;;;;5056873;28;20031;-84
2023/11/13 12:16:51;;;;;;;4.32;1.80;;;;;;;;;;5074709;28;20025;-85
2023/11/13 12:19:16;;;;;;;6.37;1.77;;;;;;;;;;5074720;28;20025;-84
2023/11/13 12:21:41;;;;;;;5.68;1.60;;;;;;;;;;5056136;28;20264;-85
2023/11/13 12:24:11;;;;;;;4.83;1.63;;;;;;;;;;5056413;28;20496;-85
2023/11/13 12:26:45;;;;;;;3.90;1.40;;;;;;;;;;5056566;28;20265;-85
2023/11/13 12:29:14;;;;;;;8.73;1.80;;;;;;;;;;5074492;28;20112;-85
2023/11/13 12:31:40;;;;;;;9.18;1.95;;;;;;;;;;5074517;28;20437;-85
2023/11/13 12:34:06;;;;;;;8.43;1.75;;;;;;;;;;5056307;28;20017;-85
2023/11/13 12:36:31;;;;;;;4.68;1.38;;;;;;;;;;5056381;28;20039;-85
2023/11/13 12:39:01;;;;;;;3.33;1.20;;;;;;;;;;5074276;28;20017;-85
2023/11/13 12:41:26;;;;;;;3.70;1.02;;;;;;;;;;5074264;28;20242;-85
2023/11/13 12:43:51;;;;;;;4.95;1.60;;;;;;;;;;5074205;28;20070;-85
2023/11/13 12:46:22;;;;;;;5.22;1.27;;;;;;;;;;5056172;28;20081;-85
2023/11/13 12:48:47;;;;;;;6.82;1.60;;;;;;;;;;5074150;28;20024;-85
2023/11/13 12:51:13;;;;;;;6.33;1.00;;;;;;;;;;5074071;28;20021;-84
2023/11/13 12:53:38;;;;;;;7.23;1.20;;;;;;;;;;5074164;28;20245;-83
2023/11/13 12:56:05;;;;;;;3.45;0.90;;;;;;;;;;5056124;28;20257;-83
2023/11/13 12:58:33;;;;;;;2.55;1.08;;;;;;;;;;5055780;28;20050;-83
2023/11/13 13:00:59;;;;;;;3.72;1.30;;;;;;;;;;5073889;28;20024;-84
2023/11/13 13:03:24;;;;;;;1.48;1.10;;;;;;;;;;5073844;28;20017;-83
2023/11/13 13:05:49;;;;;;;6.50;1.45;;;;;;;;;;5055716;28;20388;-84
2023/11/13 13:08:14;;;;;;;2.35;1.10;;;;;;;;;;5055837;28;20029;-84
2023/11/13 13:10:41;;;;;;;3.50;1.10;;;;;;;;;;5073752;28;20021;-83
2023/11/13 13:13:08;;;;;;;4.80;1.10;;;;;;;;;;5073678;28;20774;-84
2023/11/13 13:15:33;;;;;;;3.33;1.23;;;;;;;;;;5055667;28;20028;-83
2023/11/13 13:17:58;;;;;;;3.30;0.70;;;;;;;;;;5055644;28;20021;-83
2023/11/13 13:20:29;;;;;;;3.70;1.30;;;;;;;;;;5073651;28;20097;-83
2023/11/13 13:22:55;;;;;;;2.40;1.00;;;;;;;;;;5073682;28;20052;-83
2023/11/13 13:25:21;;;;;;;2.67;1.00;;;;;;;;;;5073269;28;20075;-84
2023/11/13 13:27:48;;;;;;;2.85;1.20;;;;;;;;;;5073558;28;20016;-83
2023/11/13 13:30:18;;;;;;;4.35;1.13;;;;;;;;;;5073444;28;20096;-83
2023/11/13 13:32:44;;;;;;;3.28;1.13;;;;;;;;;;5055411;28;20377;-84
2023/11/13 13:35:10;;;;;;;1.58;0.90;;;;;;;;;;5072433;28;20140;-83
2023/11/13 13:37:36;;;;;;;3.28;0.80;;;;;;;;;;5055434;28;20361;-83
2023/11/13 13:40:06;;;;;;;2.88;1.02;;;;;;;;;;5073393;28;20021;-84
2023/11/13 13:42:33;;;;;;;2.42;0.82;;;;;;;;;;5073341;28;20017;-83
2023/11/13 13:44:58;;;;;;;3.55;0.90;;;;;;;;;;5073288;28;20492;-84
2023/11/13 13:47:24;;;;;;;2.20;0.90;;;;;;;;;;5055321;28;20074;-83
2023/11/13 13:49:49;;;;;;;4.25;0.98;;;;;;;;;;5073232;28;20074;-83
2023/11/13 13:52:15;;;;;;;3.10;1.08;;;;;;;;;;5055316;28;20046;-84
2023/11/13 13:54:41;;;;;;;1.67;0.85;;;;;;;;;;5055326;28;20024;-84
2023/11/13 13:57:06;;;;;;;5.20;1.30;;;;;;;;;;5073328;28;20028;-84
2023/11/13 13:59:32;;;;;;;4.45;1.25;;;;;;;;;;5073036;28;20017;-84
2023/11/13 14:01:57;;;;;;;3.50;1.30;;;;;;;;;;5055153;28;20031;-84
2023/11/13 14:04:23;;;;;;;5.55;1.15;;;;;;;;;;5073068;28;20023;-84
2023/11/13 14:06:48;;;;;;;3.65;1.33;;;;;;;;;;5073181;28;20028;-84
2023/11/13 14:09:16;;;;;;;5.40;1.35;;;;;;;;;;5073046;28;20114;-83
2023/11/13 14:11:41;;;;;;;6.18;1.40;;;;;;;;;;5073052;28;20017;-83
2023/11/13 14:14:07;;;;;;;6.03;1.10;;;;;;;;;;5054925;28;20039;-83
2023/11/13 14:16:33;;;;;;;2.38;1.30;;;;;;;;;;5072986;28;20090;-83
2023/11/13 14:18:59;;;;;;;3.33;1.20;;;;;;;;;;5072959;28;20021;-83
2023/11/13 14:21:24;;;;;;;3.25;1.08;;;;;;;;;;5072924;28;20051;-83
2023/11/13 14:23:53;;;;;;;3.47;1.25;;;;;;;;;;5054746;28;20420;-83
2023/11/13 14:26:20;;;;;;;2.30;0.88;;;;;;;;;;5073049;28;20032;-84
2023/11/13 14:28:46;;;;;;;2.28;0.80;;;;;;;;;;5054840;28;20078;-84
2023/11/13 14:31:11;;;;;;;2.53;1.20;;;;;;;;;;5054937;28;20048;-84
2023/11/13 14:33:38;;;;;;;7.43;1.00;;;;;;;;;;5054894;28;20142;-84